sensor_id;sensor_type;location;lat;lon;timestamp;P1;durP1;ratioP1;P2;durP2;ratioP2
15637;SDS011;26604;53.596;10.042;2022-10-16T00:02:25;5.05;;;2.97;;
15637;SDS011;26604;53.596;10.042;2022-10-16T00:04:52;4.35;;;2.83;;
15637;SDS011;26604;53.596;10.042;2022-10-16T00:07:19;6.53;;;3.13;;
15637;SDS011;26604;53.596;10.042;2022-10-16T00:09:48;4.97;;;2.58;;
15637;SDS011;26604;53.596;10.042;2022-10-16T00:12:15;4.10;;;2.95;;
15637;SDS011;26604;53.596;10.042;2022-10-16T00:14:41;6.35;;;3.25;;
15637;SDS011;26604;53.596;10.042;2022-10-16T00:17:09;5.40;;;2.78;;
15637;SDS011;26604;53.596;10.042;2022-10-16T00:19:35;6.43;;;2.97;;
15637;SDS011;26604;53.596;10.042;2022-10-16T00:22:02;5.28;;;2.63;;
15637;SDS011;26604;53.596;10.042;2022-10-16T00:24:29;6.68;;;3.10;;
15637;SDS011;26604;53.596;10.042;2022-10-16T00:26:57;4.57;;;2.70;;
15637;SDS011;26604;53.596;10.042;2022-10-16T00:29:24;3.92;;;2.53;;
15637;SDS011;26604;53.596;10.042;2022-10-16T00:31:51;4.35;;;2.70;;
15637;SDS011;26604;53.596;10.042;2022-10-16T00:34:18;2.80;;;2.30;;
15637;SDS011;26604;53.596;10.042;2022-10-16T00:36:46;4.35;;;2.50;;
15637;SDS011;26604;53.596;10.042;2022-10-16T00:39:13;5.57;;;2.58;;
15637;SDS011;26604;53.596;10.042;2022-10-16T00:41:39;6.18;;;2.75;;
15637;SDS011;26604;53.596;10.042;2022-10-16T00:47:10;5.53;;;2.30;;
15637;SDS011;26604;53.596;10.042;2022-10-16T00:49:38;4.80;;;2.40;;
15637;SDS011;26604;53.596;10.042;2022-10-16T00:52:05;4.60;;;2.58;;
15637;SDS011;26604;53.596;10.042;2022-10-16T00:54:32;3.70;;;2.45;;
15637;SDS011;26604;53.596;10.042;2022-10-16T00:57:00;4.22;;;2.70;;
15637;SDS011;26604;53.596;10.042;2022-10-16T00:59:31;3.72;;;2.70;;
15637;SDS011;26604;53.596;10.042;2022-10-16T01:02:01;6.57;;;2.50;;
15637;SDS011;26604;53.596;10.042;2022-10-16T01:04:30;4.93;;;2.20;;
15637;SDS011;26604;53.596;10.042;2022-10-16T01:07:02;5.55;;;2.60;;
15637;SDS011;26604;53.596;10.042;2022-10-16T01:09:40;4.85;;;2.40;;
15637;SDS011;26604;53.596;10.042;2022-10-16T01:12:20;3.85;;;2.15;;
15637;SDS011;26604;53.596;10.042;2022-10-16T01:14:53;4.00;;;2.50;;
15637;SDS011;26604;53.596;10.042;2022-10-16T01:17:26;9.75;;;2.65;;
15637;SDS011;26604;53.596;10.042;2022-10-16T01:20:03;3.72;;;2.17;;
15637;SDS011;26604;53.596;10.042;2022-10-16T01:22:43;5.38;;;2.35;;
15637;SDS011;26604;53.596;10.042;2022-10-16T01:25:22;3.13;;;2.05;;
15637;SDS011;26604;53.596;10.042;2022-10-16T01:27:58;3.85;;;1.92;;
15637;SDS011;26604;53.596;10.042;2022-10-16T01:30:27;3.97;;;1.98;;
15637;SDS011;26604;53.596;10.042;2022-10-16T01:32:59;6.47;;;2.03;;
15637;SDS011;26604;53.596;10.042;2022-10-16T01:35:30;5.22;;;2.28;;
15637;SDS011;26604;53.596;10.042;2022-10-16T01:38:05;3.67;;;2.50;;
15637;SDS011;26604;53.596;10.042;2022-10-16T01:40:36;2.95;;;2.20;;
15637;SDS011;26604;53.596;10.042;2022-10-16T01:43:08;3.40;;;2.10;;
15637;SDS011;26604;53.596;10.042;2022-10-16T01:45:38;3.58;;;2.40;;
15637;SDS011;26604;53.596;10.042;2022-10-16T01:48:08;2.83;;;1.85;;
15637;SDS011;26604;53.596;10.042;2022-10-16T01:50:39;2.92;;;1.92;;
15637;SDS011;26604;53.596;10.042;2022-10-16T01:53:09;3.42;;;2.30;;
15637;SDS011;26604;53.596;10.042;2022-10-16T01:55:40;2.47;;;1.98;;
15637;SDS011;26604;53.596;10.042;2022-10-16T01:58:13;2.85;;;2.00;;
15637;SDS011;26604;53.596;10.042;2022-10-16T02:00:41;3.00;;;2.03;;
15637;SDS011;26604;53.596;10.042;2022-10-16T02:03:11;4.15;;;2.47;;
15637;SDS011;26604;53.596;10.042;2022-10-16T02:05:41;2.45;;;1.90;;
15637;SDS011;26604;53.596;10.042;2022-10-16T02:08:12;4.97;;;1.90;;
15637;SDS011;26604;53.596;10.042;2022-10-16T02:10:39;3.60;;;1.90;;
15637;SDS011;26604;53.596;10.042;2022-10-16T02:13:08;2.22;;;1.77;;
15637;SDS011;26604;53.596;10.042;2022-10-16T02:15:38;2.55;;;1.67;;
15637;SDS011;26604;53.596;10.042;2022-10-16T02:18:05;4.00;;;2.53;;
15637;SDS011;26604;53.596;10.042;2022-10-16T02:20:34;2.47;;;1.52;;
15637;SDS011;26604;53.596;10.042;2022-10-16T02:23:06;5.55;;;1.63;;
15637;SDS011;26604;53.596;10.042;2022-10-16T02:25:39;4.70;;;2.13;;
15637;SDS011;26604;53.596;10.042;2022-10-16T02:28:12;4.60;;;1.95;;
15637;SDS011;26604;53.596;10.042;2022-10-16T02:30:45;3.50;;;1.65;;
15637;SDS011;26604;53.596;10.042;2022-10-16T02:33:15;2.10;;;1.63;;
15637;SDS011;26604;53.596;10.042;2022-10-16T02:35:44;2.35;;;1.63;;
15637;SDS011;26604;53.596;10.042;2022-10-16T02:38:13;2.88;;;2.00;;
15637;SDS011;26604;53.596;10.042;2022-10-16T02:40:41;3.65;;;1.60;;
15637;SDS011;26604;53.596;10.042;2022-10-16T02:43:08;2.55;;;1.60;;
15637;SDS011;26604;53.596;10.042;2022-10-16T02:45:35;2.15;;;1.63;;
15637;SDS011;26604;53.596;10.042;2022-10-16T02:48:04;2.30;;;1.50;;
15637;SDS011;26604;53.596;10.042;2022-10-16T02:50:31;2.03;;;1.50;;
15637;SDS011;26604;53.596;10.042;2022-10-16T02:52:58;1.85;;;1.48;;
15637;SDS011;26604;53.596;10.042;2022-10-16T02:55:25;2.92;;;1.83;;
15637;SDS011;26604;53.596;10.042;2022-10-16T02:57:53;2.47;;;1.60;;
15637;SDS011;26604;53.596;10.042;2022-10-16T03:00:20;2.42;;;1.50;;
15637;SDS011;26604;53.596;10.042;2022-10-16T03:02:47;2.58;;;1.70;;
15637;SDS011;26604;53.596;10.042;2022-10-16T03:05:15;2.97;;;1.55;;
15637;SDS011;26604;53.596;10.042;2022-10-16T03:07:42;3.17;;;1.83;;
15637;SDS011;26604;53.596;10.042;2022-10-16T03:10:09;2.35;;;1.42;;
15637;SDS011;26604;53.596;10.042;2022-10-16T03:12:36;3.88;;;1.70;;
15637;SDS011;26604;53.596;10.042;2022-10-16T03:15:03;2.90;;;1.70;;
15637;SDS011;26604;53.596;10.042;2022-10-16T03:17:31;2.47;;;1.60;;
15637;SDS011;26604;53.596;10.042;2022-10-16T03:19:58;2.58;;;1.70;;
15637;SDS011;26604;53.596;10.042;2022-10-16T03:22:26;2.78;;;1.73;;
15637;SDS011;26604;53.596;10.042;2022-10-16T03:24:53;1.83;;;1.27;;
15637;SDS011;26604;53.596;10.042;2022-10-16T03:27:20;3.83;;;1.60;;
15637;SDS011;26604;53.596;10.042;2022-10-16T03:29:47;3.05;;;1.38;;
15637;SDS011;26604;53.596;10.042;2022-10-16T03:32:13;2.85;;;1.70;;
15637;SDS011;26604;53.596;10.042;2022-10-16T03:34:40;1.90;;;1.27;;
15637;SDS011;26604;53.596;10.042;2022-10-16T03:37:07;1.70;;;1.27;;
15637;SDS011;26604;53.596;10.042;2022-10-16T03:39:35;2.72;;;1.40;;
15637;SDS011;26604;53.596;10.042;2022-10-16T03:42:02;1.95;;;1.40;;
15637;SDS011;26604;53.596;10.042;2022-10-16T03:44:29;2.55;;;1.40;;
15637;SDS011;26604;53.596;10.042;2022-10-16T03:46:56;2.85;;;1.58;;
15637;SDS011;26604;53.596;10.042;2022-10-16T03:49:23;1.80;;;1.40;;
15637;SDS011;26604;53.596;10.042;2022-10-16T03:51:49;1.90;;;1.40;;
15637;SDS011;26604;53.596;10.042;2022-10-16T03:54:16;1.50;;;1.02;;
15637;SDS011;26604;53.596;10.042;2022-10-16T03:56:45;3.53;;;1.48;;
15637;SDS011;26604;53.596;10.042;2022-10-16T03:59:11;2.85;;;1.45;;
15637;SDS011;26604;53.596;10.042;2022-10-16T04:01:38;2.78;;;1.40;;
15637;SDS011;26604;53.596;10.042;2022-10-16T04:04:05;2.33;;;1.48;;
15637;SDS011;26604;53.596;10.042;2022-10-16T04:06:32;1.77;;;1.35;;
15637;SDS011;26604;53.596;10.042;2022-10-16T04:08:59;1.52;;;1.30;;
15637;SDS011;26604;53.596;10.042;2022-10-16T04:11:26;4.03;;;1.60;;
15637;SDS011;26604;53.596;10.042;2022-10-16T04:13:54;1.83;;;1.30;;
15637;SDS011;26604;53.596;10.042;2022-10-16T04:16:21;3.25;;;1.30;;
15637;SDS011;26604;53.596;10.042;2022-10-16T04:18:48;2.78;;;1.60;;
15637;SDS011;26604;53.596;10.042;2022-10-16T04:21:15;2.75;;;1.50;;
15637;SDS011;26604;53.596;10.042;2022-10-16T04:23:42;3.28;;;1.30;;
15637;SDS011;26604;53.596;10.042;2022-10-16T04:26:09;2.17;;;1.40;;
15637;SDS011;26604;53.596;10.042;2022-10-16T04:28:36;2.53;;;1.58;;
15637;SDS011;26604;53.596;10.042;2022-10-16T04:31:05;1.70;;;1.20;;
15637;SDS011;26604;53.596;10.042;2022-10-16T04:33:32;1.58;;;0.93;;
15637;SDS011;26604;53.596;10.042;2022-10-16T04:35:59;2.55;;;1.40;;
15637;SDS011;26604;53.596;10.042;2022-10-16T04:38:27;3.97;;;1.63;;
15637;SDS011;26604;53.596;10.042;2022-10-16T04:40:54;3.03;;;1.30;;
15637;SDS011;26604;53.596;10.042;2022-10-16T04:43:21;1.63;;;1.20;;
15637;SDS011;26604;53.596;10.042;2022-10-16T04:45:49;2.13;;;1.30;;
15637;SDS011;26604;53.596;10.042;2022-10-16T04:48:18;1.45;;;1.00;;
15637;SDS011;26604;53.596;10.042;2022-10-16T04:50:45;1.20;;;1.02;;
15637;SDS011;26604;53.596;10.042;2022-10-16T04:53:12;2.17;;;1.15;;
15637;SDS011;26604;53.596;10.042;2022-10-16T04:55:38;1.35;;;1.00;;
15637;SDS011;26604;53.596;10.042;2022-10-16T04:58:07;2.35;;;1.00;;
15637;SDS011;26604;53.596;10.042;2022-10-16T05:00:34;1.63;;;1.15;;
15637;SDS011;26604;53.596;10.042;2022-10-16T05:03:01;1.98;;;1.13;;
15637;SDS011;26604;53.596;10.042;2022-10-16T05:05:32;2.10;;;1.40;;
15637;SDS011;26604;53.596;10.042;2022-10-16T05:07:59;2.38;;;1.02;;
15637;SDS011;26604;53.596;10.042;2022-10-16T05:10:26;1.30;;;1.20;;
15637;SDS011;26604;53.596;10.042;2022-10-16T05:12:53;1.67;;;1.00;;
15637;SDS011;26604;53.596;10.042;2022-10-16T05:15:20;1.67;;;0.90;;
15637;SDS011;26604;53.596;10.042;2022-10-16T05:17:51;1.65;;;1.35;;
15637;SDS011;26604;53.596;10.042;2022-10-16T05:20:19;3.30;;;1.10;;
15637;SDS011;26604;53.596;10.042;2022-10-16T05:22:47;1.13;;;0.93;;
15637;SDS011;26604;53.596;10.042;2022-10-16T05:25:14;1.65;;;1.10;;
15637;SDS011;26604;53.596;10.042;2022-10-16T05:27:41;2.03;;;1.13;;
15637;SDS011;26604;53.596;10.042;2022-10-16T05:30:08;2.10;;;1.77;;
15637;SDS011;26604;53.596;10.042;2022-10-16T05:32:35;1.52;;;1.00;;
15637;SDS011;26604;53.596;10.042;2022-10-16T05:35:02;1.55;;;1.00;;
15637;SDS011;26604;53.596;10.042;2022-10-16T05:37:29;1.42;;;1.10;;
15637;SDS011;26604;53.596;10.042;2022-10-16T05:39:58;1.42;;;0.90;;
15637;SDS011;26604;53.596;10.042;2022-10-16T05:42:24;4.20;;;1.00;;
15637;SDS011;26604;53.596;10.042;2022-10-16T05:44:51;1.65;;;1.00;;
15637;SDS011;26604;53.596;10.042;2022-10-16T05:47:18;1.10;;;0.80;;
15637;SDS011;26604;53.596;10.042;2022-10-16T05:49:46;1.13;;;0.98;;
15637;SDS011;26604;53.596;10.042;2022-10-16T05:52:12;3.33;;;1.10;;
15637;SDS011;26604;53.596;10.042;2022-10-16T05:54:39;1.42;;;1.00;;
15637;SDS011;26604;53.596;10.042;2022-10-16T05:57:07;2.60;;;1.20;;
15637;SDS011;26604;53.596;10.042;2022-10-16T05:59:34;1.30;;;0.90;;
15637;SDS011;26604;53.596;10.042;2022-10-16T06:02:01;1.27;;;0.95;;
15637;SDS011;26604;53.596;10.042;2022-10-16T06:04:28;3.17;;;1.48;;
15637;SDS011;26604;53.596;10.042;2022-10-16T06:06:57;2.03;;;1.00;;
15637;SDS011;26604;53.596;10.042;2022-10-16T06:09:26;3.83;;;0.98;;
15637;SDS011;26604;53.596;10.042;2022-10-16T06:11:53;1.38;;;0.98;;
15637;SDS011;26604;53.596;10.042;2022-10-16T06:14:21;2.55;;;0.88;;
15637;SDS011;26604;53.596;10.042;2022-10-16T06:16:48;2.05;;;1.13;;
15637;SDS011;26604;53.596;10.042;2022-10-16T06:19:14;2.30;;;0.98;;
15637;SDS011;26604;53.596;10.042;2022-10-16T06:21:42;1.55;;;0.88;;
15637;SDS011;26604;53.596;10.042;2022-10-16T06:24:09;1.52;;;0.90;;
15637;SDS011;26604;53.596;10.042;2022-10-16T06:26:37;2.17;;;0.90;;
15637;SDS011;26604;53.596;10.042;2022-10-16T06:29:04;2.42;;;0.90;;
15637;SDS011;26604;53.596;10.042;2022-10-16T06:31:32;1.73;;;0.90;;
15637;SDS011;26604;53.596;10.042;2022-10-16T06:33:59;2.92;;;1.15;;
15637;SDS011;26604;53.596;10.042;2022-10-16T06:36:27;1.67;;;1.00;;
15637;SDS011;26604;53.596;10.042;2022-10-16T06:38:54;2.88;;;0.98;;
15637;SDS011;26604;53.596;10.042;2022-10-16T06:41:21;1.05;;;0.95;;
15637;SDS011;26604;53.596;10.042;2022-10-16T06:43:49;3.30;;;0.90;;
15637;SDS011;26604;53.596;10.042;2022-10-16T06:46:17;1.42;;;0.85;;
15637;SDS011;26604;53.596;10.042;2022-10-16T06:48:46;5.35;;;1.73;;
15637;SDS011;26604;53.596;10.042;2022-10-16T06:51:14;2.00;;;1.27;;
15637;SDS011;26604;53.596;10.042;2022-10-16T06:53:42;7.63;;;1.30;;
15637;SDS011;26604;53.596;10.042;2022-10-16T06:56:11;2.15;;;1.00;;
15637;SDS011;26604;53.596;10.042;2022-10-16T06:58:39;1.20;;;0.90;;
15637;SDS011;26604;53.596;10.042;2022-10-16T07:01:07;1.27;;;0.70;;
15637;SDS011;26604;53.596;10.042;2022-10-16T07:03:35;1.80;;;1.17;;
15637;SDS011;26604;53.596;10.042;2022-10-16T07:06:05;2.78;;;1.00;;
15637;SDS011;26604;53.596;10.042;2022-10-16T07:08:33;2.60;;;1.00;;
15637;SDS011;26604;53.596;10.042;2022-10-16T07:11:01;2.55;;;1.15;;
15637;SDS011;26604;53.596;10.042;2022-10-16T07:13:28;2.33;;;1.20;;
15637;SDS011;26604;53.596;10.042;2022-10-16T07:15:55;1.35;;;0.95;;
15637;SDS011;26604;53.596;10.042;2022-10-16T07:18:22;0.93;;;0.75;;
15637;SDS011;26604;53.596;10.042;2022-10-16T07:20:51;2.95;;;0.80;;
15637;SDS011;26604;53.596;10.042;2022-10-16T07:23:20;1.45;;;0.95;;
15637;SDS011;26604;53.596;10.042;2022-10-16T07:25:53;1.23;;;0.98;;
15637;SDS011;26604;53.596;10.042;2022-10-16T07:28:20;1.25;;;0.90;;
15637;SDS011;26604;53.596;10.042;2022-10-16T07:30:47;3.22;;;0.82;;
15637;SDS011;26604;53.596;10.042;2022-10-16T07:33:15;1.38;;;0.80;;
15637;SDS011;26604;53.596;10.042;2022-10-16T07:35:47;2.13;;;1.05;;
15637;SDS011;26604;53.596;10.042;2022-10-16T07:38:14;1.70;;;0.80;;
15637;SDS011;26604;53.596;10.042;2022-10-16T07:40:43;1.70;;;0.93;;
15637;SDS011;26604;53.596;10.042;2022-10-16T07:43:10;2.25;;;1.10;;
15637;SDS011;26604;53.596;10.042;2022-10-16T07:45:37;2.15;;;1.25;;
15637;SDS011;26604;53.596;10.042;2022-10-16T07:48:12;1.30;;;0.90;;
15637;SDS011;26604;53.596;10.042;2022-10-16T07:50:39;10.77;;;1.50;;
15637;SDS011;26604;53.596;10.042;2022-10-16T07:53:06;2.78;;;1.33;;
15637;SDS011;26604;53.596;10.042;2022-10-16T07:55:33;11.95;;;2.50;;
15637;SDS011;26604;53.596;10.042;2022-10-16T07:58:01;11.13;;;2.70;;
15637;SDS011;26604;53.596;10.042;2022-10-16T08:00:28;11.35;;;1.95;;
15637;SDS011;26604;53.596;10.042;2022-10-16T08:02:56;15.60;;;2.40;;
15637;SDS011;26604;53.596;10.042;2022-10-16T08:05:25;8.00;;;2.40;;
15637;SDS011;26604;53.596;10.042;2022-10-16T08:07:52;14.82;;;2.15;;
15637;SDS011;26604;53.596;10.042;2022-10-16T08:10:20;7.90;;;2.45;;
15637;SDS011;26604;53.596;10.042;2022-10-16T08:12:47;8.70;;;2.25;;
15637;SDS011;26604;53.596;10.042;2022-10-16T08:15:16;11.73;;;2.05;;
15637;SDS011;26604;53.596;10.042;2022-10-16T08:17:43;9.90;;;1.80;;
15637;SDS011;26604;53.596;10.042;2022-10-16T08:20:10;4.10;;;1.90;;
15637;SDS011;26604;53.596;10.042;2022-10-16T08:22:37;4.97;;;2.08;;
15637;SDS011;26604;53.596;10.042;2022-10-16T08:25:04;4.95;;;1.98;;
15637;SDS011;26604;53.596;10.042;2022-10-16T08:27:31;4.80;;;1.98;;
15637;SDS011;26604;53.596;10.042;2022-10-16T08:29:58;5.90;;;1.60;;
15637;SDS011;26604;53.596;10.042;2022-10-16T08:32:27;3.72;;;1.58;;
15637;SDS011;26604;53.596;10.042;2022-10-16T08:34:53;3.90;;;1.80;;
15637;SDS011;26604;53.596;10.042;2022-10-16T08:37:20;6.60;;;1.77;;
15637;SDS011;26604;53.596;10.042;2022-10-16T08:39:47;2.88;;;1.63;;
15637;SDS011;26604;53.596;10.042;2022-10-16T08:42:23;2.90;;;1.67;;
15637;SDS011;26604;53.596;10.042;2022-10-16T08:45:08;3.13;;;1.75;;
15637;SDS011;26604;53.596;10.042;2022-10-16T08:47:49;5.38;;;1.95;;
15637;SDS011;26604;53.596;10.042;2022-10-16T08:50:27;3.83;;;1.30;;
15637;SDS011;26604;53.596;10.042;2022-10-16T08:52:55;3.30;;;1.75;;
15637;SDS011;26604;53.596;10.042;2022-10-16T08:55:29;8.05;;;1.73;;
15637;SDS011;26604;53.596;10.042;2022-10-16T08:58:00;5.82;;;1.67;;
15637;SDS011;26604;53.596;10.042;2022-10-16T09:00:27;3.17;;;1.70;;
15637;SDS011;26604;53.596;10.042;2022-10-16T09:02:59;8.80;;;2.00;;
15637;SDS011;26604;53.596;10.042;2022-10-16T09:08:26;13.52;;;1.92;;
15637;SDS011;26604;53.596;10.042;2022-10-16T09:11:01;13.50;;;2.58;;
15637;SDS011;26604;53.596;10.042;2022-10-16T09:13:35;6.25;;;1.70;;
15637;SDS011;26604;53.596;10.042;2022-10-16T09:16:12;7.22;;;1.88;;
15637;SDS011;26604;53.596;10.042;2022-10-16T09:18:47;14.00;;;2.30;;
15637;SDS011;26604;53.596;10.042;2022-10-16T09:21:18;8.73;;;2.00;;
15637;SDS011;26604;53.596;10.042;2022-10-16T09:23:49;8.20;;;2.25;;
15637;SDS011;26604;53.596;10.042;2022-10-16T09:26:16;11.75;;;2.55;;
15637;SDS011;26604;53.596;10.042;2022-10-16T09:28:44;11.73;;;2.63;;
15637;SDS011;26604;53.596;10.042;2022-10-16T09:31:18;11.55;;;3.35;;
15637;SDS011;26604;53.596;10.042;2022-10-16T09:33:49;14.88;;;3.58;;
15637;SDS011;26604;53.596;10.042;2022-10-16T09:36:19;11.73;;;3.53;;
15637;SDS011;26604;53.596;10.042;2022-10-16T09:38:47;7.53;;;4.22;;
15637;SDS011;26604;53.596;10.042;2022-10-16T09:41:16;12.45;;;4.05;;
15637;SDS011;26604;53.596;10.042;2022-10-16T09:43:49;15.38;;;4.30;;
15637;SDS011;26604;53.596;10.042;2022-10-16T09:46:27;9.95;;;3.92;;
15637;SDS011;26604;53.596;10.042;2022-10-16T09:48:57;15.95;;;4.05;;
15637;SDS011;26604;53.596;10.042;2022-10-16T09:51:27;13.85;;;3.50;;
15637;SDS011;26604;53.596;10.042;2022-10-16T09:53:55;12.05;;;4.70;;
15637;SDS011;26604;53.596;10.042;2022-10-16T09:56:25;12.32;;;4.00;;
15637;SDS011;26604;53.596;10.042;2022-10-16T09:58:54;11.52;;;3.40;;
15637;SDS011;26604;53.596;10.042;2022-10-16T10:01:22;13.43;;;4.10;;
15637;SDS011;26604;53.596;10.042;2022-10-16T10:03:55;17.65;;;3.95;;
15637;SDS011;26604;53.596;10.042;2022-10-16T10:06:27;12.77;;;5.10;;
15637;SDS011;26604;53.596;10.042;2022-10-16T10:08:56;12.55;;;6.30;;
15637;SDS011;26604;53.596;10.042;2022-10-16T10:11:45;13.57;;;5.88;;
15637;SDS011;26604;53.596;10.042;2022-10-16T10:14:22;10.38;;;5.53;;
15637;SDS011;26604;53.596;10.042;2022-10-16T10:16:51;12.75;;;4.88;;
15637;SDS011;26604;53.596;10.042;2022-10-16T10:19:28;12.93;;;4.22;;
15637;SDS011;26604;53.596;10.042;2022-10-16T10:21:55;12.90;;;5.40;;
15637;SDS011;26604;53.596;10.042;2022-10-16T10:24:22;13.40;;;7.22;;
15637;SDS011;26604;53.596;10.042;2022-10-16T10:26:51;14.60;;;5.68;;
15637;SDS011;26604;53.596;10.042;2022-10-16T10:29:35;13.63;;;4.63;;
15637;SDS011;26604;53.596;10.042;2022-10-16T10:32:14;11.38;;;4.10;;
15637;SDS011;26604;53.596;10.042;2022-10-16T10:35:03;10.80;;;3.92;;
15637;SDS011;26604;53.596;10.042;2022-10-16T10:37:43;11.60;;;4.40;;
15637;SDS011;26604;53.596;10.042;2022-10-16T10:40:23;12.05;;;4.22;;
15637;SDS011;26604;53.596;10.042;2022-10-16T10:43:02;16.38;;;3.80;;
15637;SDS011;26604;53.596;10.042;2022-10-16T10:45:36;8.52;;;3.38;;
15637;SDS011;26604;53.596;10.042;2022-10-16T10:48:15;12.70;;;3.17;;
15637;SDS011;26604;53.596;10.042;2022-10-16T10:50:56;11.93;;;3.10;;
15637;SDS011;26604;53.596;10.042;2022-10-16T10:53:35;13.30;;;3.45;;
15637;SDS011;26604;53.596;10.042;2022-10-16T10:56:14;10.63;;;3.67;;
15637;SDS011;26604;53.596;10.042;2022-10-16T10:59:02;12.05;;;3.03;;
15637;SDS011;26604;53.596;10.042;2022-10-16T11:01:45;7.10;;;2.88;;
15637;SDS011;26604;53.596;10.042;2022-10-16T11:07:33;8.75;;;3.03;;
15637;SDS011;26604;53.596;10.042;2022-10-16T11:10:08;16.42;;;3.15;;
15637;SDS011;26604;53.596;10.042;2022-10-16T11:12:39;8.63;;;2.72;;
15637;SDS011;26604;53.596;10.042;2022-10-16T11:15:11;8.90;;;3.20;;
15637;SDS011;26604;53.596;10.042;2022-10-16T11:17:42;9.05;;;3.40;;
15637;SDS011;26604;53.596;10.042;2022-10-16T11:20:14;8.48;;;3.35;;
15637;SDS011;26604;53.596;10.042;2022-10-16T11:22:48;9.82;;;3.10;;
15637;SDS011;26604;53.596;10.042;2022-10-16T11:25:20;8.85;;;3.20;;
15637;SDS011;26604;53.596;10.042;2022-10-16T11:27:50;21.23;;;4.40;;
15637;SDS011;26604;53.596;10.042;2022-10-16T11:30:22;9.30;;;2.83;;
15637;SDS011;26604;53.596;10.042;2022-10-16T11:32:52;9.32;;;4.10;;
15637;SDS011;26604;53.596;10.042;2022-10-16T11:35:33;10.30;;;2.90;;
15637;SDS011;26604;53.596;10.042;2022-10-16T11:38:09;11.38;;;2.80;;
15637;SDS011;26604;53.596;10.042;2022-10-16T11:40:42;12.00;;;3.22;;
15637;SDS011;26604;53.596;10.042;2022-10-16T11:43:13;4.85;;;2.50;;
15637;SDS011;26604;53.596;10.042;2022-10-16T11:45:46;7.57;;;3.33;;
15637;SDS011;26604;53.596;10.042;2022-10-16T11:48:18;9.73;;;3.03;;
15637;SDS011;26604;53.596;10.042;2022-10-16T11:50:53;10.02;;;3.13;;
15637;SDS011;26604;53.596;10.042;2022-10-16T11:53:29;9.88;;;2.47;;
15637;SDS011;26604;53.596;10.042;2022-10-16T11:56:05;9.05;;;3.05;;
15637;SDS011;26604;53.596;10.042;2022-10-16T11:58:33;10.63;;;2.63;;
15637;SDS011;26604;53.596;10.042;2022-10-16T12:01:10;8.93;;;2.65;;
15637;SDS011;26604;53.596;10.042;2022-10-16T12:03:45;5.25;;;2.65;;
15637;SDS011;26604;53.596;10.042;2022-10-16T12:06:21;8.10;;;2.78;;
15637;SDS011;26604;53.596;10.042;2022-10-16T12:08:55;6.18;;;2.60;;
15637;SDS011;26604;53.596;10.042;2022-10-16T12:11:32;7.20;;;3.10;;
15637;SDS011;26604;53.596;10.042;2022-10-16T12:14:06;6.63;;;2.65;;
15637;SDS011;26604;53.596;10.042;2022-10-16T12:16:50;10.15;;;2.55;;
15637;SDS011;26604;53.596;10.042;2022-10-16T12:19:18;9.57;;;2.25;;
15637;SDS011;26604;53.596;10.042;2022-10-16T12:21:47;8.85;;;2.90;;
15637;SDS011;26604;53.596;10.042;2022-10-16T12:24:24;5.55;;;2.40;;
15637;SDS011;26604;53.596;10.042;2022-10-16T12:26:57;8.02;;;3.05;;
15637;SDS011;26604;53.596;10.042;2022-10-16T12:29:28;6.35;;;2.58;;
15637;SDS011;26604;53.596;10.042;2022-10-16T12:31:59;5.63;;;2.40;;
15637;SDS011;26604;53.596;10.042;2022-10-16T12:34:27;7.15;;;2.50;;
15637;SDS011;26604;53.596;10.042;2022-10-16T12:36:56;6.85;;;2.53;;
15637;SDS011;26604;53.596;10.042;2022-10-16T12:39:36;8.70;;;2.70;;
15637;SDS011;26604;53.596;10.042;2022-10-16T12:42:04;5.80;;;2.28;;
15637;SDS011;26604;53.596;10.042;2022-10-16T12:44:45;5.30;;;2.15;;
15637;SDS011;26604;53.596;10.042;2022-10-16T12:47:19;8.18;;;2.55;;
15637;SDS011;26604;53.596;10.042;2022-10-16T12:49:50;4.72;;;2.22;;
15637;SDS011;26604;53.596;10.042;2022-10-16T12:52:25;8.45;;;2.60;;
15637;SDS011;26604;53.596;10.042;2022-10-16T12:54:57;6.47;;;2.58;;
15637;SDS011;26604;53.596;10.042;2022-10-16T12:57:29;5.55;;;2.40;;
15637;SDS011;26604;53.596;10.042;2022-10-16T13:00:06;7.47;;;2.85;;
15637;SDS011;26604;53.596;10.042;2022-10-16T13:02:53;4.90;;;2.70;;
15637;SDS011;26604;53.596;10.042;2022-10-16T13:05:40;5.95;;;2.45;;
15637;SDS011;26604;53.596;10.042;2022-10-16T13:08:23;7.57;;;2.35;;
15637;SDS011;26604;53.596;10.042;2022-10-16T13:11:05;9.25;;;2.78;;
15637;SDS011;26604;53.596;10.042;2022-10-16T13:13:40;5.13;;;2.45;;
15637;SDS011;26604;53.596;10.042;2022-10-16T13:16:23;7.32;;;2.63;;
15637;SDS011;26604;53.596;10.042;2022-10-16T13:19:00;6.25;;;2.75;;
15637;SDS011;26604;53.596;10.042;2022-10-16T13:21:37;6.25;;;2.33;;
15637;SDS011;26604;53.596;10.042;2022-10-16T13:24:12;7.10;;;2.83;;
15637;SDS011;26604;53.596;10.042;2022-10-16T13:26:52;5.22;;;2.17;;
15637;SDS011;26604;53.596;10.042;2022-10-16T13:29:28;4.60;;;2.70;;
15637;SDS011;26604;53.596;10.042;2022-10-16T13:31:57;5.47;;;2.67;;
15637;SDS011;26604;53.596;10.042;2022-10-16T13:34:24;5.07;;;2.50;;
15637;SDS011;26604;53.596;10.042;2022-10-16T13:36:52;6.82;;;2.67;;
15637;SDS011;26604;53.596;10.042;2022-10-16T13:39:23;5.05;;;2.40;;
15637;SDS011;26604;53.596;10.042;2022-10-16T13:42:04;7.07;;;2.80;;
15637;SDS011;26604;53.596;10.042;2022-10-16T13:44:35;3.90;;;1.98;;
15637;SDS011;26604;53.596;10.042;2022-10-16T13:47:05;6.03;;;2.60;;
15637;SDS011;26604;53.596;10.042;2022-10-16T13:49:40;6.25;;;2.80;;
15637;SDS011;26604;53.596;10.042;2022-10-16T13:52:15;5.63;;;2.20;;
15637;SDS011;26604;53.596;10.042;2022-10-16T13:54:44;3.70;;;2.25;;
15637;SDS011;26604;53.596;10.042;2022-10-16T13:57:13;6.80;;;2.25;;
15637;SDS011;26604;53.596;10.042;2022-10-16T13:59:40;4.07;;;2.30;;
15637;SDS011;26604;53.596;10.042;2022-10-16T14:02:10;5.30;;;2.38;;
15637;SDS011;26604;53.596;10.042;2022-10-16T14:04:44;5.95;;;2.55;;
15637;SDS011;26604;53.596;10.042;2022-10-16T14:07:13;7.13;;;3.17;;
15637;SDS011;26604;53.596;10.042;2022-10-16T14:09:47;4.15;;;2.35;;
15637;SDS011;26604;53.596;10.042;2022-10-16T14:12:16;3.53;;;2.10;;
15637;SDS011;26604;53.596;10.042;2022-10-16T14:14:44;3.97;;;2.15;;
15637;SDS011;26604;53.596;10.042;2022-10-16T14:17:13;5.90;;;2.42;;
15637;SDS011;26604;53.596;10.042;2022-10-16T14:19:40;4.75;;;2.47;;
15637;SDS011;26604;53.596;10.042;2022-10-16T14:22:22;4.68;;;2.10;;
15637;SDS011;26604;53.596;10.042;2022-10-16T14:24:54;4.40;;;2.17;;
15637;SDS011;26604;53.596;10.042;2022-10-16T14:27:25;5.43;;;2.75;;
15637;SDS011;26604;53.596;10.042;2022-10-16T14:30:12;4.47;;;2.30;;
15637;SDS011;26604;53.596;10.042;2022-10-16T14:32:42;4.30;;;2.20;;
15637;SDS011;26604;53.596;10.042;2022-10-16T14:35:27;5.70;;;2.15;;
15637;SDS011;26604;53.596;10.042;2022-10-16T14:37:56;5.75;;;2.17;;
15637;SDS011;26604;53.596;10.042;2022-10-16T14:40:25;6.82;;;2.20;;
15637;SDS011;26604;53.596;10.042;2022-10-16T14:42:55;5.45;;;2.17;;
15637;SDS011;26604;53.596;10.042;2022-10-16T14:45:24;3.45;;;2.10;;
15637;SDS011;26604;53.596;10.042;2022-10-16T14:47:53;4.72;;;2.05;;
15637;SDS011;26604;53.596;10.042;2022-10-16T14:50:22;4.15;;;1.88;;
15637;SDS011;26604;53.596;10.042;2022-10-16T14:52:49;3.67;;;2.28;;
15637;SDS011;26604;53.596;10.042;2022-10-16T14:55:16;4.45;;;2.28;;
15637;SDS011;26604;53.596;10.042;2022-10-16T14:57:43;3.63;;;2.05;;
15637;SDS011;26604;53.596;10.042;2022-10-16T15:00:19;4.75;;;2.22;;
15637;SDS011;26604;53.596;10.042;2022-10-16T15:02:48;2.97;;;2.03;;